sensor_id;sensor_type;location;lat;lon;timestamp;P1;durP1;ratioP1;P2;durP2;ratioP2
76833;SDS011;65793;42.678;23.332;2023-01-25T00:01:59;7.05;;;4.75;;
76833;SDS011;65793;42.678;23.332;2023-01-25T00:05:00;6.40;;;4.82;;
76833;SDS011;65793;42.678;23.332;2023-01-25T00:08:00;8.68;;;5.38;;
76833;SDS011;65793;42.678;23.332;2023-01-25T00:11:01;6.57;;;4.68;;
76833;SDS011;65793;42.678;23.332;2023-01-25T00:14:03;7.30;;;6.38;;
76833;SDS011;65793;42.678;23.332;2023-01-25T00:17:06;7.07;;;5.55;;
76833;SDS011;65793;42.678;23.332;2023-01-25T00:20:10;6.88;;;5.38;;
76833;SDS011;65793;42.678;23.332;2023-01-25T00:23:10;5.90;;;4.73;;
76833;SDS011;65793;42.678;23.332;2023-01-25T00:26:11;6.75;;;4.70;;
76833;SDS011;65793;42.678;23.332;2023-01-25T00:29:16;5.57;;;4.55;;
76833;SDS011;65793;42.678;23.332;2023-01-25T00:32:31;5.05;;;3.58;;
76833;SDS011;65793;42.678;23.332;2023-01-25T00:35:46;8.43;;;4.55;;
76833;SDS011;65793;42.678;23.332;2023-01-25T00:38:53;5.80;;;4.22;;
76833;SDS011;65793;42.678;23.332;2023-01-25T00:41:54;5.93;;;4.63;;
76833;SDS011;65793;42.678;23.332;2023-01-25T00:45:01;8.15;;;4.93;;
76833;SDS011;65793;42.678;23.332;2023-01-25T00:48:01;6.07;;;4.88;;
76833;SDS011;65793;42.678;23.332;2023-01-25T00:51:02;5.55;;;4.63;;
76833;SDS011;65793;42.678;23.332;2023-01-25T00:54:02;7.85;;;5.80;;
76833;SDS011;65793;42.678;23.332;2023-01-25T00:57:03;5.80;;;5.18;;
76833;SDS011;65793;42.678;23.332;2023-01-25T01:00:06;10.82;;;7.38;;
76833;SDS011;65793;42.678;23.332;2023-01-25T01:03:08;16.48;;;9.45;;
76833;SDS011;65793;42.678;23.332;2023-01-25T01:06:09;7.57;;;5.55;;
76833;SDS011;65793;42.678;23.332;2023-01-25T01:09:11;6.82;;;5.07;;
76833;SDS011;65793;42.678;23.332;2023-01-25T01:12:14;7.15;;;6.05;;
76833;SDS011;65793;42.678;23.332;2023-01-25T01:15:15;6.07;;;4.38;;
76833;SDS011;65793;42.678;23.332;2023-01-25T01:18:16;8.38;;;4.63;;
76833;SDS011;65793;42.678;23.332;2023-01-25T01:21:16;6.55;;;4.20;;
76833;SDS011;65793;42.678;23.332;2023-01-25T01:24:17;5.75;;;5.10;;
76833;SDS011;65793;42.678;23.332;2023-01-25T01:27:18;5.97;;;4.38;;
76833;SDS011;65793;42.678;23.332;2023-01-25T01:30:19;5.57;;;4.53;;
76833;SDS011;65793;42.678;23.332;2023-01-25T01:33:20;5.50;;;4.50;;
76833;SDS011;65793;42.678;23.332;2023-01-25T01:36:21;5.40;;;3.90;;
76833;SDS011;65793;42.678;23.332;2023-01-25T01:39:22;6.20;;;4.43;;
76833;SDS011;65793;42.678;23.332;2023-01-25T01:42:23;5.32;;;4.65;;
76833;SDS011;65793;42.678;23.332;2023-01-25T01:48:53;5.03;;;3.97;;
76833;SDS011;65793;42.678;23.332;2023-01-25T01:51:57;5.72;;;4.35;;
76833;SDS011;65793;42.678;23.332;2023-01-25T01:55:02;4.93;;;3.53;;
76833;SDS011;65793;42.678;23.332;2023-01-25T01:58:09;6.63;;;4.45;;
76833;SDS011;65793;42.678;23.332;2023-01-25T02:01:11;6.22;;;4.07;;
76833;SDS011;65793;42.678;23.332;2023-01-25T02:04:11;4.82;;;3.95;;
76833;SDS011;65793;42.678;23.332;2023-01-25T02:07:15;2.90;;;2.70;;
76833;SDS011;65793;42.678;23.332;2023-01-25T02:10:20;4.05;;;3.45;;
76833;SDS011;65793;42.678;23.332;2023-01-25T02:13:23;5.30;;;4.00;;
76833;SDS011;65793;42.678;23.332;2023-01-25T02:16:26;4.80;;;4.40;;
76833;SDS011;65793;42.678;23.332;2023-01-25T02:22:38;3.83;;;3.17;;
76833;SDS011;65793;42.678;23.332;2023-01-25T02:25:44;6.43;;;4.53;;
76833;SDS011;65793;42.678;23.332;2023-01-25T02:28:46;4.50;;;3.83;;
76833;SDS011;65793;42.678;23.332;2023-01-25T02:31:49;6.20;;;4.18;;
76833;SDS011;65793;42.678;23.332;2023-01-25T02:34:58;6.00;;;3.90;;
76833;SDS011;65793;42.678;23.332;2023-01-25T02:37:59;4.38;;;3.95;;
76833;SDS011;65793;42.678;23.332;2023-01-25T02:41:01;4.38;;;3.97;;
76833;SDS011;65793;42.678;23.332;2023-01-25T02:44:07;3.92;;;3.55;;
76833;SDS011;65793;42.678;23.332;2023-01-25T02:47:11;15.60;;;5.68;;
76833;SDS011;65793;42.678;23.332;2023-01-25T02:50:12;4.20;;;3.80;;
76833;SDS011;65793;42.678;23.332;2023-01-25T02:53:12;5.25;;;4.20;;
76833;SDS011;65793;42.678;23.332;2023-01-25T02:56:14;5.30;;;3.63;;
76833;SDS011;65793;42.678;23.332;2023-01-25T02:59:15;7.00;;;3.90;;
76833;SDS011;65793;42.678;23.332;2023-01-25T03:02:15;4.43;;;4.03;;
76833;SDS011;65793;42.678;23.332;2023-01-25T03:05:16;5.10;;;3.83;;
76833;SDS011;65793;42.678;23.332;2023-01-25T03:08:16;5.05;;;4.55;;
76833;SDS011;65793;42.678;23.332;2023-01-25T03:11:18;5.88;;;4.00;;
76833;SDS011;65793;42.678;23.332;2023-01-25T03:14:19;4.82;;;3.78;;
76833;SDS011;65793;42.678;23.332;2023-01-25T03:17:20;4.43;;;3.97;;
76833;SDS011;65793;42.678;23.332;2023-01-25T03:20:20;4.95;;;2.80;;
76833;SDS011;65793;42.678;23.332;2023-01-25T03:23:23;5.25;;;3.30;;
76833;SDS011;65793;42.678;23.332;2023-01-25T03:26:25;4.30;;;3.20;;
76833;SDS011;65793;42.678;23.332;2023-01-25T03:29:26;3.85;;;3.00;;
76833;SDS011;65793;42.678;23.332;2023-01-25T03:32:27;5.18;;;3.92;;
76833;SDS011;65793;42.678;23.332;2023-01-25T03:35:27;4.22;;;3.78;;
76833;SDS011;65793;42.678;23.332;2023-01-25T03:38:28;5.20;;;3.60;;
76833;SDS011;65793;42.678;23.332;2023-01-25T03:41:30;5.38;;;3.95;;
76833;SDS011;65793;42.678;23.332;2023-01-25T03:44:31;4.50;;;3.47;;
76833;SDS011;65793;42.678;23.332;2023-01-25T03:47:31;3.83;;;2.70;;
76833;SDS011;65793;42.678;23.332;2023-01-25T03:50:32;4.47;;;3.47;;
76833;SDS011;65793;42.678;23.332;2023-01-25T03:53:33;3.65;;;3.30;;
76833;SDS011;65793;42.678;23.332;2023-01-25T03:56:35;4.30;;;3.85;;
76833;SDS011;65793;42.678;23.332;2023-01-25T03:59:35;4.45;;;4.05;;
76833;SDS011;65793;42.678;23.332;2023-01-25T04:02:36;4.85;;;4.07;;
76833;SDS011;65793;42.678;23.332;2023-01-25T04:05:36;4.10;;;2.92;;
76833;SDS011;65793;42.678;23.332;2023-01-25T04:08:37;3.40;;;3.10;;
76833;SDS011;65793;42.678;23.332;2023-01-25T04:11:39;4.40;;;3.95;;
76833;SDS011;65793;42.678;23.332;2023-01-25T04:14:39;5.10;;;4.30;;
76833;SDS011;65793;42.678;23.332;2023-01-25T04:17:40;7.53;;;5.28;;
76833;SDS011;65793;42.678;23.332;2023-01-25T04:20:40;5.18;;;3.65;;
76833;SDS011;65793;42.678;23.332;2023-01-25T04:23:41;7.30;;;4.47;;
76833;SDS011;65793;42.678;23.332;2023-01-25T04:26:43;10.63;;;7.88;;
76833;SDS011;65793;42.678;23.332;2023-01-25T04:29:43;13.90;;;8.50;;
76833;SDS011;65793;42.678;23.332;2023-01-25T04:32:44;5.35;;;4.85;;
76833;SDS011;65793;42.678;23.332;2023-01-25T04:35:45;5.72;;;3.65;;
76833;SDS011;65793;42.678;23.332;2023-01-25T04:38:45;7.13;;;4.88;;
76833;SDS011;65793;42.678;23.332;2023-01-25T04:41:47;6.35;;;4.13;;
76833;SDS011;65793;42.678;23.332;2023-01-25T04:44:48;6.75;;;3.85;;
76833;SDS011;65793;42.678;23.332;2023-01-25T04:47:48;6.60;;;4.35;;
76833;SDS011;65793;42.678;23.332;2023-01-25T04:50:49;4.97;;;4.30;;
76833;SDS011;65793;42.678;23.332;2023-01-25T04:53:50;6.82;;;4.68;;
76833;SDS011;65793;42.678;23.332;2023-01-25T04:56:52;5.88;;;3.72;;
76833;SDS011;65793;42.678;23.332;2023-01-25T04:59:52;4.78;;;3.75;;
76833;SDS011;65793;42.678;23.332;2023-01-25T05:02:53;4.45;;;3.75;;
76833;SDS011;65793;42.678;23.332;2023-01-25T05:05:53;5.03;;;3.95;;
76833;SDS011;65793;42.678;23.332;2023-01-25T05:08:54;3.78;;;3.22;;
76833;SDS011;65793;42.678;23.332;2023-01-25T05:11:56;4.90;;;3.47;;
76833;SDS011;65793;42.678;23.332;2023-01-25T05:14:56;6.03;;;4.75;;
76833;SDS011;65793;42.678;23.332;2023-01-25T05:17:59;6.57;;;4.70;;
76833;SDS011;65793;42.678;23.332;2023-01-25T05:21:02;5.22;;;4.25;;
76833;SDS011;65793;42.678;23.332;2023-01-25T05:24:11;4.40;;;3.67;;
76833;SDS011;65793;42.678;23.332;2023-01-25T05:27:14;4.15;;;2.88;;
76833;SDS011;65793;42.678;23.332;2023-01-25T05:30:16;6.80;;;4.13;;
76833;SDS011;65793;42.678;23.332;2023-01-25T05:33:16;8.60;;;5.50;;
76833;SDS011;65793;42.678;23.332;2023-01-25T05:36:17;5.95;;;3.90;;
76833;SDS011;65793;42.678;23.332;2023-01-25T05:39:20;5.57;;;3.65;;
76833;SDS011;65793;42.678;23.332;2023-01-25T05:42:24;4.60;;;3.40;;
76833;SDS011;65793;42.678;23.332;2023-01-25T05:45:29;4.22;;;3.75;;
76833;SDS011;65793;42.678;23.332;2023-01-25T05:48:30;4.38;;;3.30;;
76833;SDS011;65793;42.678;23.332;2023-01-25T05:51:30;6.55;;;4.88;;
76833;SDS011;65793;42.678;23.332;2023-01-25T05:54:31;6.03;;;4.85;;
76833;SDS011;65793;42.678;23.332;2023-01-25T05:57:33;9.90;;;5.45;;
76833;SDS011;65793;42.678;23.332;2023-01-25T06:00:35;5.70;;;4.22;;
76833;SDS011;65793;42.678;23.332;2023-01-25T06:03:36;5.85;;;4.45;;
76833;SDS011;65793;42.678;23.332;2023-01-25T06:06:39;7.15;;;5.85;;
76833;SDS011;65793;42.678;23.332;2023-01-25T06:09:40;7.18;;;4.95;;
76833;SDS011;65793;42.678;23.332;2023-01-25T06:16:24;6.35;;;4.93;;
76833;SDS011;65793;42.678;23.332;2023-01-25T06:22:35;7.18;;;3.85;;
76833;SDS011;65793;42.678;23.332;2023-01-25T06:25:38;3.97;;;3.40;;
76833;SDS011;65793;42.678;23.332;2023-01-25T06:28:41;4.60;;;3.13;;
76833;SDS011;65793;42.678;23.332;2023-01-25T06:55:12;5.13;;;3.85;;
76833;SDS011;65793;42.678;23.332;2023-01-25T06:58:13;5.80;;;4.18;;
76833;SDS011;65793;42.678;23.332;2023-01-25T07:01:16;3.97;;;3.58;;
76833;SDS011;65793;42.678;23.332;2023-01-25T07:04:25;3.95;;;3.55;;
76833;SDS011;65793;42.678;23.332;2023-01-25T07:07:28;5.95;;;4.28;;
76833;SDS011;65793;42.678;23.332;2023-01-25T20:42:52;21.08;;;12.32;;
76833;SDS011;65793;42.678;23.332;2023-01-25T20:45:53;16.58;;;10.80;;
76833;SDS011;65793;42.678;23.332;2023-01-25T20:48:58;16.77;;;12.38;;
76833;SDS011;65793;42.678;23.332;2023-01-25T20:52:13;14.85;;;10.27;;
76833;SDS011;65793;42.678;23.332;2023-01-25T20:55:29;15.25;;;10.15;;
76833;SDS011;65793;42.678;23.332;2023-01-25T22:21:46;6.65;;;4.88;;
76833;SDS011;65793;42.678;23.332;2023-01-25T22:24:51;9.07;;;6.00;;
76833;SDS011;65793;42.678;23.332;2023-01-25T22:27:54;6.68;;;4.75;;
76833;SDS011;65793;42.678;23.332;2023-01-25T22:31:05;5.75;;;4.90;;
76833;SDS011;65793;42.678;23.332;2023-01-25T22:34:06;6.00;;;5.32;;
76833;SDS011;65793;42.678;23.332;2023-01-25T22:43:50;6.93;;;5.45;;
76833;SDS011;65793;42.678;23.332;2023-01-25T22:47:01;5.10;;;4.22;;
76833;SDS011;65793;42.678;23.332;2023-01-25T22:50:10;5.53;;;4.93;;
76833;SDS011;65793;42.678;23.332;2023-01-25T22:53:14;6.50;;;4.70;;
76833;SDS011;65793;42.678;23.332;2023-01-25T22:56:16;8.23;;;5.28;;
76833;SDS011;65793;42.678;23.332;2023-01-25T23:03:08;7.65;;;5.63;;
76833;SDS011;65793;42.678;23.332;2023-01-25T23:06:22;4.93;;;4.47;;
76833;SDS011;65793;42.678;23.332;2023-01-25T23:09:24;5.50;;;5.00;;
76833;SDS011;65793;42.678;23.332;2023-01-25T23:12:24;7.18;;;4.93;;
76833;SDS011;65793;42.678;23.332;2023-01-25T23:15:25;7.30;;;5.88;;
76833;SDS011;65793;42.678;23.332;2023-01-25T23:18:27;7.30;;;4.35;;
76833;SDS011;65793;42.678;23.332;2023-01-25T23:21:27;4.72;;;4.30;;
76833;SDS011;65793;42.678;23.332;2023-01-25T23:24:28;8.05;;;5.30;;
76833;SDS011;65793;42.678;23.332;2023-01-25T23:27:29;4.55;;;4.13;;
76833;SDS011;65793;42.678;23.332;2023-01-25T23:30:29;9.82;;;5.38;;
76833;SDS011;65793;42.678;23.332;2023-01-25T23:33:31;5.40;;;4.90;;
76833;SDS011;65793;42.678;23.332;2023-01-25T23:36:32;6.65;;;4.68;;
76833;SDS011;65793;42.678;23.332;2023-01-25T23:39:34;5.63;;;4.65;;
76833;SDS011;65793;42.678;23.332;2023-01-25T23:42:35;4.18;;;3.70;;
